Map

Track Data

SID SEASON NUMBER BASIN SUBBASIN NAME ISO_TIME NATURE LAT LON WMO_WIND WMO_PRES WMO_AGENCY TRACK_TYPE DIST2LAND LANDFALL IFLAG USA_AGENCY USA_ATCF_ID USA_LAT USA_LON USA_RECORD USA_STATUS USA_WIND USA_PRES USA_SSHS USA_R34_NE USA_R34_SE USA_R34_SW USA_R34_NW USA_R50_NE USA_R50_SE USA_R50_SW USA_R50_NW USA_R64_NE USA_R64_SE USA_R64_SW USA_R64_NW USA_POCI USA_ROCI USA_RMW USA_EYE TOKYO_LAT TOKYO_LON TOKYO_GRADE TOKYO_WIND TOKYO_PRES TOKYO_R50_DIR TOKYO_R50_LONG TOKYO_R50_SHORT TOKYO_R30_DIR TOKYO_R30_LONG TOKYO_R30_SHORT TOKYO_LAND CMA_LAT CMA_LON CMA_CAT CMA_WIND CMA_PRES HKO_LAT HKO_LON HKO_CAT HKO_WIND HKO_PRES NEWDELHI_LAT NEWDELHI_LON NEWDELHI_GRADE NEWDELHI_WIND NEWDELHI_PRES NEWDELHI_CI NEWDELHI_DP NEWDELHI_POCI REUNION_LAT REUNION_LON REUNION_TYPE REUNION_WIND REUNION_PRES REUNION_TNUM REUNION_CI REUNION_RMW REUNION_R34_NE REUNION_R34_SE REUNION_R34_SW REUNION_R34_NW REUNION_R50_NE REUNION_R50_SE REUNION_R50_SW REUNION_R50_NW REUNION_R64_NE REUNION_R64_SE REUNION_R64_SW REUNION_R64_NW BOM_LAT BOM_LON BOM_TYPE BOM_WIND BOM_PRES BOM_TNUM BOM_CI BOM_RMW BOM_R34_NE BOM_R34_SE BOM_R34_SW BOM_R34_NW BOM_R50_NE BOM_R50_SE BOM_R50_SW BOM_R50_NW BOM_R64_NE BOM_R64_SE BOM_R64_SW BOM_R64_NW BOM_ROCI BOM_POCI BOM_EYE BOM_POS_METHOD BOM_PRES_METHOD NADI_LAT NADI_LON NADI_CAT NADI_WIND NADI_PRES WELLINGTON_LAT WELLINGTON_LON WELLINGTON_WIND WELLINGTON_PRES DS824_LAT DS824_LON DS824_STAGE DS824_WIND DS824_PRES TD9636_LAT TD9636_LON TD9636_STAGE TD9636_WIND TD9636_PRES TD9635_LAT TD9635_LON TD9635_WIND TD9635_PRES TD9635_ROCI NEUMANN_LAT NEUMANN_LON NEUMANN_CLASS NEUMANN_WIND NEUMANN_PRES MLC_LAT MLC_LON MLC_CLASS MLC_WIND MLC_PRES USA_GUST BOM_GUST BOM_GUST_PER REUNION_GUST REUNION_GUST_PER USA_SEAHGT USA_SEARAD_NE USA_SEARAD_SE USA_SEARAD_SW USA_SEARAD_NW STORM_SPEED STORM_DIR
1872071S05087 1872 9 SI MM NOT_NAMED 1872-03-10 18:00:00 NR -5.00000 87.1000 main 1288 1288 __________O___ -1 -5.00000 87.1000 7 4 239
1872071S05087 1872 9 SI MM NOT_NAMED 1872-03-10 21:00:00 NR -5.09204 86.9405 main 1313 1313 __________P___ -1 -5.09204 86.9405 7 4 240
1872071S05087 1872 9 SI MM NOT_NAMED 1872-03-11 00:00:00 NR -5.20726 86.7448 main 1337 1337 __________P___ -1 -5.20726 86.7448 7 5 239
1872071S05087 1872 9 SI MM NOT_NAMED 1872-03-11 03:00:00 NR -5.36887 86.4768 main 1368 1368 __________P___ -1 -5.36887 86.4768 7 8 239
1872071S05087 1872 9 SI MM NOT_NAMED 1872-03-11 06:00:00 NR -5.60000 86.1000 main 1416 1416 __________O___ -1 -5.60000 86.1000 7 10 238
1872071S05087 1872 9 SI MM NOT_NAMED 1872-03-11 09:00:00 NR -5.91615 85.5909 main 1434 1434 __________P___ -1 -5.91615 85.5909 7 13 238
1872071S05087 1872 9 SI MM NOT_NAMED 1872-03-11 12:00:00 NR -6.30279 84.9772 main 1451 1448 __________P___ -1 -6.30279 84.9772 7 15 237
1872071S05087 1872 9 SI MM NOT_NAMED 1872-03-11 15:00:00 NR -6.73798 84.3000 main 1470 1470 __________P___ -1 -6.73798 84.3000 7 16 237
1872071S05087 1872 9 SI MM NOT_NAMED 1872-03-11 18:00:00 NR -7.20000 83.6000 main 1505 1505 __________O___ -1 -7.20000 83.6000 7 17 236
1872071S05087 1872 9 SI MM NOT_NAMED 1872-03-11 21:00:00 NR -7.66964 82.9233 main 1545 1543 __________P___ -1 -7.66964 82.9233 7 17 235
1872071S05087 1872 9 SI MM NOT_NAMED 1872-03-12 00:00:00 NR -8.15748 82.2352 main 1589 1588 __________P___ -1 -8.15748 82.2352 7 17 234
1872071S05087 1872 9 SI MM NOT_NAMED 1872-03-12 03:00:00 NR -8.64155 81.5545 main 1628 1628 __________P___ -1 -8.64155 81.5545 7 16 234
1872071S05087 1872 9 SI MM NOT_NAMED 1872-03-12 06:00:00 NR -9.10000 80.9000 main 1681 1680 __________O___ -1 -9.10000 80.9000 7 15 236
1872071S05087 1872 9 SI MM NOT_NAMED 1872-03-12 09:00:00 NR -9.48696 80.2953 main 1725 1725 __________P___ -1 -9.48696 80.2953 7 14 237
1872071S05087 1872 9 SI MM NOT_NAMED 1872-03-12 12:00:00 NR -9.84928 79.7187 main 1762 1762 __________P___ -1 -9.84928 79.7187 7 13 237
1872071S05087 1872 9 SI MM NOT_NAMED 1872-03-12 15:00:00 NR -10.2120 79.1578 main 1810 1810 __________P___ -1 -10.2120 79.1578 7 13 236
1872071S05087 1872 9 SI MM NOT_NAMED 1872-03-12 18:00:00 NR -10.6000 78.6000 main 1862 1862 __________O___ -1 -10.6000 78.6000 7 14 234
1872071S05087 1872 9 SI MM NOT_NAMED 1872-03-12 21:00:00 NR -11.0544 77.9968 main 1926 1926 __________P___ -1 -11.0544 77.9968 7 15 232
1872071S05087 1872 9 SI MM NOT_NAMED 1872-03-13 00:00:00 NR -11.5351 77.3979 main 1981 1981 __________P___ -1 -11.5351 77.3979 7 15 230
1872071S05087 1872 9 SI MM NOT_NAMED 1872-03-13 03:00:00 NR -12.0232 76.8249 main 2049 2049 __________P___ -1 -12.0232 76.8249 7 14 228
1872071S05087 1872 9 SI MM NOT_NAMED 1872-03-13 06:00:00 NR -12.5000 76.3000 main 2115 2097 __________O___ -1 -12.5000 76.3000 7 13 226
1872071S05087 1872 9 SI MM NOT_NAMED 1872-03-13 09:00:00 NR -12.9387 75.8528 main 2097 2038 __________P___ -1 -12.9387 75.8528 7 12 224
1872071S05087 1872 9 SI MM NOT_NAMED 1872-03-13 12:00:00 NR -13.3641 75.4538 main 2034 1976 __________P___ -1 -13.3641 75.4538 7 11 222
1872071S05087 1872 9 SI MM NOT_NAMED 1872-03-13 15:00:00 NR -13.7825 75.0779 main 1976 1918 __________P___ -1 -13.7825 75.0779 7 11 221
1872071S05087 1872 9 SI MM NOT_NAMED 1872-03-13 18:00:00 NR -14.2000 74.7000 main 1918 1861 __________O___ -1 -14.2000 74.7000 7 12 223
1872071S05087 1872 9 SI MM NOT_NAMED 1872-03-13 21:00:00 NR -14.6292 74.2578 main 1861 1795 __________P___ -1 -14.6292 74.2578 7 12 225
1872071S05087 1872 9 SI MM NOT_NAMED 1872-03-14 00:00:00 NR -15.0577 73.8126 main 1791 1735 __________P___ -1 -15.0577 73.8126 7 12 225
1872071S05087 1872 9 SI MM NOT_NAMED 1872-03-14 03:00:00 NR -15.4823 73.3860 main 1735 1679 __________P___ -1 -15.4823 73.3860 7 12 223
1872071S05087 1872 9 SI MM NOT_NAMED 1872-03-14 06:00:00 NR -15.9000 73.0000 main 1679 1634 __________O___ -1 -15.9000 73.0000 7 11 220
1872071S05087 1872 9 SI MM NOT_NAMED 1872-03-14 09:00:00 NR -16.2986 72.6850 main 1634 1590 __________P___ -1 -16.2986 72.6850 7 10 216
1872071S05087 1872 9 SI MM NOT_NAMED 1872-03-14 12:00:00 NR -16.6919 72.4112 main 1590 1557 __________P___ -1 -16.6919 72.4112 7 9 213
1872071S05087 1872 9 SI MM NOT_NAMED 1872-03-14 15:00:00 NR -17.0893 72.1569 main 1557 1515 __________P___ -1 -17.0893 72.1569 7 9 211
1872071S05087 1872 9 SI MM NOT_NAMED 1872-03-14 18:00:00 NR -17.5000 71.9000 main 1515 1474 __________O___ -1 -17.5000 71.9000 7 10 212
1872071S05087 1872 9 SI MM NOT_NAMED 1872-03-14 21:00:00 NR -17.9193 71.6067 main 1474 1433 __________P___ -1 -17.9193 71.6067 7 10 213
1872071S05087 1872 9 SI MM NOT_NAMED 1872-03-15 00:00:00 NR -18.3549 71.3067 main 1431 1392 __________P___ -1 -18.3549 71.3067 7 11 213
1872071S05087 1872 9 SI MM NOT_NAMED 1872-03-15 03:00:00 NR -18.8131 71.0034 main 1392 1353 __________P___ -1 -18.8131 71.0034 7 11 211
1872071S05087 1872 9 SI MM NOT_NAMED 1872-03-15 06:00:00 NR -19.3000 70.7000 main 1353 1316 __________O___ -1 -19.3000 70.7000 7 12 210
1872071S05087 1872 9 SI MM NOT_NAMED 1872-03-15 09:00:00 NR -19.8212 70.3917 main 1316 1282 __________P___ -1 -19.8212 70.3917 7 12 208
1872071S05087 1872 9 SI MM NOT_NAMED 1872-03-15 12:00:00 NR -20.3700 70.0848 main 1281 1250 __________P___ -1 -20.3700 70.0848 7 13 207
1872071S05087 1872 9 SI MM NOT_NAMED 1872-03-15 15:00:00 NR -20.9338 69.7854 main 1250 1221 __________P___ -1 -20.9338 69.7854 7 13 206
1872071S05087 1872 9 SI MM NOT_NAMED 1872-03-15 18:00:00 NR -21.5000 69.5000 main 1222 1196 __________O___ -1 -21.5000 69.5000 7 12 205
1872071S05087 1872 9 SI MM NOT_NAMED 1872-03-15 21:00:00 NR -22.0588 69.2331 main 1198 1184 __________P___ -1 -22.0588 69.2331 7 12 203
1872071S05087 1872 9 SI MM NOT_NAMED 1872-03-16 00:00:00 NR -22.6101 68.9812 main 1186 1173 __________P___ -1 -22.6101 68.9812 7 12 203
1872071S05087 1872 9 SI MM NOT_NAMED 1872-03-16 03:00:00 NR -23.1564 68.7387 main 1170 1162 __________P___ -1 -23.1564 68.7387 7 12 202
1872071S05087 1872 9 SI MM NOT_NAMED 1872-03-16 06:00:00 NR -23.7000 68.5000 main 1166 __________O___ -1 -23.7000 68.5000 7 12 202

About IBTrACS Database

This database is a web-friendly format of International Best Track Archive for Climate Stewardship (IBTrACS), a global best track data archive curated by NOAA dating back to 1842.

Updated: 2021-10-21